TimeCDT,TemperatureF,Dew PointF,Humidity,Sea Level PressureIn,VisibilityMPH,Wind Direction,Wind SpeedMPH,Gust SpeedMPH,PrecipitationIn,Events,Conditions,WindDirDegrees,DateUTC
12:53 AM,77.0,73.9,90,29.97,10.0,NE,5.8,-,N/A,,Clear,40,2013-09-18 05:53:00
1:53 AM,75.9,73.0,91,29.97,9.0,NE,3.5,-,N/A,,Clear,50,2013-09-18 06:53:00
2:53 AM,75.0,72.0,90,29.96,9.0,North,3.5,-,N/A,,Clear,350,2013-09-18 07:53:00
3:53 AM,73.9,72.0,93,29.94,8.0,NE,6.9,-,N/A,,Clear,40,2013-09-18 08:53:00
4:53 AM,73.9,73.0,97,29.93,7.0,NNE,5.8,-,N/A,,Clear,20,2013-09-18 09:53:00
5:53 AM,75.0,73.0,94,29.92,8.0,NE,5.8,-,N/A,,Clear,50,2013-09-18 10:53:00
6:53 AM,75.0,73.0,94,29.93,8.0,NNE,6.9,-,N/A,,Clear,20,2013-09-18 11:53:00
7:53 AM,75.9,73.9,94,29.96,7.0,NNE,5.8,-,N/A,,Partly Cloudy,20,2013-09-18 12:53:00
8:53 AM,79.0,75.9,90,29.97,10.0,ENE,9.2,-,N/A,,Clear,60,2013-09-18 13:53:00
9:53 AM,84.0,77.0,79,29.98,10.0,East,8.1,-,N/A,,Clear,90,2013-09-18 14:53:00
10:53 AM,86.0,75.0,70,29.99,10.0,East,8.1,-,N/A,,Partly Cloudy,100,2013-09-18 15:53:00
11:53 AM,87.1,73.9,65,29.97,10.0,East,12.7,-,N/A,,Partly Cloudy,100,2013-09-18 16:53:00
12:53 PM,89.1,73.0,59,29.96,10.0,ESE,13.8,-,N/A,,Partly Cloudy,110,2013-09-18 17:53:00
1:53 PM,90.0,73.0,57,29.94,10.0,ESE,11.5,20.7,N/A,,Clear,110,2013-09-18 18:53:00
2:53 PM,90.0,72.0,55,29.93,10.0,East,17.3,-,N/A,,Clear,90,2013-09-18 19:53:00
3:53 PM,90.0,73.9,59,29.91,10.0,ESE,13.8,-,N/A,,Clear,110,2013-09-18 20:53:00
4:53 PM,88.0,73.9,63,29.90,10.0,ESE,16.1,21.9,N/A,,Clear,110,2013-09-18 21:53:00
5:53 PM,88.0,73.0,61,29.89,10.0,East,17.3,24.2,N/A,,Clear,100,2013-09-18 22:53:00
6:53 PM,84.9,73.9,69,29.89,10.0,East,15.0,-,N/A,,Partly Cloudy,100,2013-09-18 23:53:00
7:53 PM,82.9,73.9,74,29.89,10.0,East,10.4,-,N/A,,Clear,100,2013-09-19 00:53:00
8:53 PM,82.0,75.0,79,29.91,10.0,East,5.8,-,N/A,,Partly Cloudy,100,2013-09-19 01:53:00
9:53 PM,81.0,75.0,82,29.93,10.0,ESE,5.8,-,N/A,,Clear,110,2013-09-19 02:53:00
10:53 PM,81.0,75.0,82,29.92,10.0,East,4.6,-,N/A,,Clear,100,2013-09-19 03:53:00
11:53 PM,81.0,75.0,82,29.92,10.0,East,6.9,21.9,N/A,,Clear,100,2013-09-19 04:53:00